Time;durP1;ratioP1;P1;durP2;ratioP2;P2;SDS_P1;SDS_P2;PMS_P1;PMS_P2;Temp;Humidity;BMP_temperature;BMP_pressure;BME280_temperature;BME280_humidity;BME280_pressure;Samples;Min_cycle;Max_cycle;Signal;HPM_P1;HPM_P2
2022/04/09 00:00:48;;;;;;;9.10;3.53;;;15.90;99.90;;;;;;5087776;28;20437;-80
2022/04/09 00:03:16;;;;;;;9.00;3.60;;;15.90;99.90;;;;;;5087557;28;20051;-80
2022/04/09 00:05:44;;;;;;;9.18;3.42;;;15.80;99.90;;;;;;5085119;28;20128;-81
2022/04/09 00:08:12;;;;;;;7.32;3.22;;;15.70;99.90;;;;;;5050362;28;20048;-81
2022/04/09 00:10:40;;;;;;;10.50;4.32;;;15.70;99.90;;;;;;5069548;28;20045;-81
2022/04/09 00:13:07;;;;;;;12.32;4.65;;;15.60;99.90;;;;;;5068318;28;20453;-81
2022/04/09 00:15:35;;;;;;;10.48;4.10;;;15.50;99.90;;;;;;5070314;28;20045;-82
2022/04/09 00:18:02;;;;;;;12.60;4.65;;;15.50;99.90;;;;;;5073348;28;20041;-81
2022/04/09 00:20:30;;;;;;;9.75;3.92;;;15.30;99.90;;;;;;5060082;28;20041;-81
2022/04/09 00:22:57;;;;;;;11.68;4.60;;;15.30;99.90;;;;;;5069746;28;20048;-80
2022/04/09 00:25:26;;;;;;;9.48;4.15;;;15.10;99.90;;;;;;5052003;28;20045;-82
2022/04/09 00:27:54;;;;;;;11.18;3.85;;;15.10;99.90;;;;;;5051281;28;20555;-80
2022/04/09 00:30:21;;;;;;;8.30;2.97;;;15.10;99.90;;;;;;5050174;28;20048;-80
2022/04/09 00:32:49;;;;;;;10.20;3.15;;;15.10;99.90;;;;;;5047960;28;20067;-80
2022/04/09 00:35:17;;;;;;;8.43;2.67;;;15.20;99.90;;;;;;5063500;28;20053;-80
2022/04/09 00:37:45;;;;;;;9.55;3.42;;;15.30;99.90;;;;;;5046485;28;20049;-81
2022/04/09 00:40:15;;;;;;;9.60;2.53;;;15.50;99.90;;;;;;5070535;28;20040;-81
2022/04/09 00:42:44;;;;;;;7.45;1.95;;;15.50;99.90;;;;;;5062671;28;20025;-80
2022/04/09 00:45:12;;;;;;;8.68;2.22;;;15.60;99.90;;;;;;5080478;28;20032;-80
2022/04/09 00:47:39;;;;;;;9.23;2.78;;;15.70;99.90;;;;;;5051048;28;20041;-82
2022/04/09 00:50:09;;;;;;;6.57;2.55;;;15.80;99.90;;;;;;5065232;28;20063;-81
2022/04/09 00:52:39;;;;;;;6.10;2.33;;;15.70;99.90;;;;;;5065999;28;20048;-82
2022/04/09 00:55:08;;;;;;;8.50;2.70;;;15.70;99.90;;;;;;5047656;28;20049;-81
2022/04/09 00:57:36;;;;;;;9.48;3.72;;;15.70;99.90;;;;;;5046757;28;20049;-81
2022/04/09 01:00:09;;;;;;;12.57;3.90;;;15.60;99.90;;;;;;5047187;28;20459;-79
2022/04/09 01:02:40;;;;;;;10.40;3.78;;;15.50;99.90;;;;;;5048600;28;20499;-81
2022/04/09 01:05:08;;;;;;;6.80;3.20;;;15.30;99.90;;;;;;5067350;28;20033;-81
2022/04/09 01:07:36;;;;;;;12.93;4.38;;;15.20;99.90;;;;;;5051100;28;20071;-80
2022/04/09 01:10:05;;;;;;;8.68;3.30;;;15.10;99.90;;;;;;5050107;28;20052;-81
2022/04/09 01:12:35;;;;;;;14.50;3.95;;;15.00;99.90;;;;;;5050517;28;20037;-82
2022/04/09 01:15:06;;;;;;;13.70;4.25;;;14.80;99.90;;;;;;5051212;28;20056;-80
2022/04/09 01:17:36;;;;;;;10.68;4.00;;;14.80;99.90;;;;;;5049946;28;20077;-82
2022/04/09 01:20:19;;;;;;;11.43;4.38;;;14.70;99.90;;;;;;5049050;28;20049;-80
2022/04/09 01:22:50;;;;;;;13.10;4.60;;;14.50;99.90;;;;;;5047324;28;20041;-81
2022/04/09 01:25:18;;;;;;;13.60;4.90;;;14.40;99.90;;;;;;5064246;28;20108;-79
2022/04/09 01:27:48;;;;;;;15.70;8.82;;;14.30;99.90;;;;;;5049431;28;20037;-81
2022/04/09 01:30:16;;;;;;;22.10;13.38;;;14.20;99.90;;;;;;5044098;28;20499;-81
2022/04/09 01:32:45;;;;;;;15.07;6.47;;;14.00;99.90;;;;;;5047612;28;20068;-82
2022/04/09 01:35:12;;;;;;;15.77;6.80;;;13.90;99.90;;;;;;5050194;28;20064;-81
2022/04/09 01:37:41;;;;;;;18.05;9.85;;;13.90;99.90;;;;;;5050152;28;20116;-83
2022/04/09 01:40:11;;;;;;;15.07;7.45;;;13.70;99.90;;;;;;5048071;28;20055;-84
2022/04/09 01:42:43;;;;;;;19.05;8.57;;;13.60;99.90;;;;;;5046498;28;20443;-84
2022/04/09 01:45:11;;;;;;;13.00;5.00;;;13.60;99.90;;;;;;5047010;28;20148;-83
2022/04/09 01:47:42;;;;;;;16.77;7.97;;;13.50;99.90;;;;;;5047352;28;20041;-82
2022/04/09 01:50:11;;;;;;;18.15;7.50;;;13.40;99.90;;;;;;5060056;28;20029;-81
2022/04/09 01:52:39;;;;;;;12.45;5.47;;;13.40;99.90;;;;;;5079006;28;20035;-81
2022/04/09 01:55:08;;;;;;;14.40;6.80;;;13.50;99.90;;;;;;5062777;28;20028;-78
2022/04/09 01:57:39;;;;;;;9.75;4.55;;;13.50;99.90;;;;;;5061762;28;20025;-77
2022/04/09 02:00:12;;;;;;;14.68;6.50;;;13.50;99.90;;;;;;5062486;28;20056;-82
2022/04/09 02:02:45;;;;;;;12.25;5.63;;;13.50;99.90;;;;;;5070727;28;20057;-83
2022/04/09 02:05:14;;;;;;;12.27;4.25;;;13.50;99.90;;;;;;5059430;28;20041;-81
2022/04/09 02:07:44;;;;;;;11.95;5.70;;;13.50;99.90;;;;;;5041238;28;20045;-82
2022/04/09 02:10:12;;;;;;;11.60;5.40;;;13.60;99.90;;;;;;5041661;28;20060;-81
2022/04/09 02:12:44;;;;;;;11.70;5.32;;;13.50;99.90;;;;;;5040803;28;20045;-82
2022/04/09 02:15:15;;;;;;;17.27;6.50;;;13.40;99.90;;;;;;5038356;28;20049;-82
2022/04/09 02:17:44;;;;;;;12.73;4.65;;;13.30;99.90;;;;;;5035888;28;20041;-81
2022/04/09 02:20:14;;;;;;;16.63;7.82;;;13.20;99.90;;;;;;5021714;28;20077;-81
2022/04/09 02:22:44;;;;;;;13.13;7.40;;;13.00;99.90;;;;;;5021018;28;20069;-82
2022/04/09 02:25:14;;;;;;;14.25;7.07;;;12.90;99.90;;;;;;5028916;28;20048;-81
2022/04/09 02:27:42;;;;;;;11.57;5.35;;;12.80;99.90;;;;;;5041993;28;20033;-80
2022/04/09 02:30:11;;;;;;;15.25;5.68;;;12.60;99.90;;;;;;5054482;28;20060;-81
2022/04/09 02:32:45;;;;;;;13.35;7.55;;;12.50;99.90;;;;;;5057354;28;20124;-83
2022/04/09 02:35:15;;;;;;;11.60;6.18;;;12.40;99.90;;;;;;5057934;28;20117;-82
2022/04/09 02:37:43;;;;;;;11.93;5.90;;;12.20;99.90;;;;;;5036772;28;20048;-83
2022/04/09 02:40:12;;;;;;;13.95;6.78;;;12.20;99.90;;;;;;5038054;28;20084;-81
2022/04/09 02:42:41;;;;;;;11.95;5.88;;;12.10;99.90;;;;;;5036537;28;20112;-81
2022/04/09 02:45:12;;;;;;;13.38;6.55;;;11.90;99.90;;;;;;5072102;28;20041;-82
2022/04/09 02:47:40;;;;;;;17.52;9.52;;;11.90;99.90;;;;;;5053979;28;20071;-81
2022/04/09 02:50:13;;;;;;;14.57;7.22;;;11.80;99.90;;;;;;5053360;28;20083;-80
2022/04/09 02:52:42;;;;;;;16.17;7.35;;;11.80;99.90;;;;;;5054270;28;20106;-81
2022/04/09 02:55:13;;;;;;;17.90;7.10;;;11.80;99.90;;;;;;5055680;28;20029;-80
2022/04/09 02:57:42;;;;;;;16.42;7.75;;;11.80;99.90;;;;;;5055927;28;20025;-80
2022/04/09 03:00:14;;;;;;;10.88;5.47;;;11.70;99.90;;;;;;5058434;28;20056;-81
2022/04/09 03:02:43;;;;;;;13.13;6.95;;;11.70;99.90;;;;;;5057174;28;20041;-82
2022/04/09 03:05:25;;;;;;;16.90;7.05;;;11.70;99.90;;;;;;5057418;28;20033;-81
2022/04/09 03:07:53;;;;;;;15.05;4.90;;;11.80;99.90;;;;;;5055970;28;20075;-81
2022/04/09 03:10:21;;;;;;;11.77;5.22;;;11.70;99.90;;;;;;5057519;28;20045;-81
2022/04/09 03:12:49;;;;;;;14.82;6.00;;;11.70;99.90;;;;;;5074856;28;20104;-81
2022/04/09 03:15:18;;;;;;;16.98;6.25;;;11.50;99.90;;;;;;5074653;28;20055;-81
2022/04/09 03:17:47;;;;;;;16.20;6.40;;;11.50;99.90;;;;;;5056036;28;20052;-82
2022/04/09 03:20:17;;;;;;;15.73;7.25;;;11.40;99.90;;;;;;5057254;28;20040;-82
2022/04/09 03:22:45;;;;;;;14.27;6.47;;;11.40;99.90;;;;;;5057068;28;20049;-81
2022/04/09 03:25:15;;;;;;;16.48;5.93;;;11.40;99.90;;;;;;5068320;28;20064;-80
2022/04/09 03:27:46;;;;;;;10.95;4.85;;;11.30;99.90;;;;;;5067648;28;20040;-81
2022/04/09 03:30:13;;;;;;;16.13;6.88;;;11.30;99.90;;;;;;5069559;28;20110;-81
2022/04/09 03:32:44;;;;;;;14.10;6.18;;;11.30;99.90;;;;;;5080924;28;20048;-80
2022/04/09 03:35:18;;;;;;;;;;;11.20;99.90;;;;;;5081665;28;20048;-79
2022/04/09 03:37:47;;;;;;;12.90;5.05;;;11.20;99.90;;;;;;5067503;28;19925;-80
2022/04/09 03:40:19;;;;;;;13.55;6.22;;;11.20;99.90;;;;;;5077730;28;20094;-79
2022/04/09 03:42:47;;;;;;;13.90;6.60;;;11.20;99.90;;;;;;5053235;28;20090;-81
2022/04/09 03:45:15;;;;;;;16.40;6.47;;;11.10;99.90;;;;;;5068108;28;20036;-81
2022/04/09 03:47:45;;;;;;;13.98;6.28;;;11.10;99.90;;;;;;5066001;28;20121;-80
2022/04/09 03:50:17;;;;;;;11.00;4.15;;;11.10;99.90;;;;;;5062345;28;20049;-80
2022/04/09 03:52:46;;;;;;;9.05;4.63;;;11.00;99.90;;;;;;5050765;28;20107;-83
2022/04/09 03:55:14;;;;;;;13.35;5.53;;;10.90;99.90;;;;;;5059498;28;20123;-82
2022/04/09 03:57:42;;;;;;;10.80;4.47;;;10.90;99.90;;;;;;5060884;28;20112;-82
2022/04/09 04:00:13;;;;;;;11.00;5.38;;;10.80;99.90;;;;;;5057448;28;20049;-81
2022/04/09 04:02:51;;;;;;;12.32;5.45;;;10.80;99.90;;;;;;5052766;28;20200;-80
2022/04/09 04:05:20;;;;;;;18.15;6.97;;;10.70;99.90;;;;;;5069385;28;20051;-81
2022/04/09 04:07:48;;;;;;;15.50;6.15;;;10.60;99.90;;;;;;5069244;28;20142;-82
2022/04/09 04:10:19;;;;;;;13.88;5.85;;;10.60;99.90;;;;;;5054121;28;20041;-82
2022/04/09 04:12:51;;;;;;;25.00;8.63;;;10.60;99.90;;;;;;5051968;28;20521;-81
2022/04/09 04:15:25;;;;;;;39.90;21.58;;;10.60;99.90;;;;;;5062288;28;20052;-82
2022/04/09 04:17:55;;;;;;;40.92;21.75;;;10.70;99.90;;;;;;5085986;28;20064;-81
2022/04/09 04:20:27;;;;;;;39.65;16.10;;;10.70;99.90;;;;;;5067685;28;20136;-81
2022/04/09 04:22:58;;;;;;;28.00;14.70;;;10.60;99.90;;;;;;5061907;28;20135;-81
2022/04/09 04:25:27;;;;;;;30.23;14.60;;;10.60;99.90;;;;;;5049653;28;20051;-83
2022/04/09 04:27:55;;;;;;;28.73;14.73;;;10.60;99.90;;;;;;5066882;28;20041;-82
2022/04/09 04:30:24;;;;;;;25.52;11.68;;;10.60;99.90;;;;;;5050092;28;20041;-82
2022/04/09 04:32:54;;;;;;;22.33;11.05;;;10.60;99.90;;;;;;5051206;28;20049;-82
2022/04/09 04:35:30;;;;;;;21.98;9.73;;;10.50;99.90;;;;;;5051522;28;20049;-83
2022/04/09 04:37:58;;;;;;;20.27;11.07;;;10.50;99.90;;;;;;5053136;28;20045;-82
2022/04/09 04:40:29;;;;;;;26.15;13.50;;;10.50;99.90;;;;;;5051181;28;20052;-83
2022/04/09 04:43:01;;;;;;;31.38;14.93;;;10.40;99.90;;;;;;5048753;28;20117;-83
2022/04/09 04:45:31;;;;;;;34.13;16.02;;;10.40;99.90;;;;;;5045217;28;20091;-82
2022/04/09 04:48:02;;;;;;;29.05;17.25;;;10.40;99.90;;;;;;5045133;28;20756;-83
2022/04/09 04:50:33;;;;;;;32.22;17.63;;;10.40;99.90;;;;;;5045418;28;20095;-83
2022/04/09 04:53:03;;;;;;;31.52;16.85;;;10.40;99.90;;;;;;5045075;28;20049;-81
2022/04/09 04:55:36;;;;;;;61.78;32.22;;;10.50;99.90;;;;;;5045050;28;20044;-82
2022/04/09 04:58:04;;;;;;;89.43;46.47;;;10.50;99.90;;;;;;5082369;28;20040;-83
2022/04/09 05:00:44;;;;;;;43.30;22.35;;;10.60;99.90;;;;;;5051818;28;20045;-81
2022/04/09 05:03:18;;;;;;;37.78;18.98;;;10.80;99.90;;;;;;5054044;28;20088;-83
2022/04/09 05:06:14;;;;;;;30.02;14.30;;;10.90;99.90;;;;;;5063796;28;20068;-80
2022/04/09 05:08:42;;;;;;;33.53;17.33;;;11.10;99.90;;;;;;5060822;28;20049;-80
2022/04/09 05:11:14;;;;;;;40.58;18.88;;;11.20;99.90;;;;;;5055135;28;20079;-79
2022/04/09 05:13:41;;;;;;;36.78;19.98;;;11.40;99.90;;;;;;5047182;28;20052;-80
2022/04/09 05:16:11;;;;;;;33.72;17.70;;;11.50;99.90;;;;;;5042505;28;20042;-80
2022/04/09 05:18:47;;;;;;;41.72;20.20;;;11.70;99.90;;;;;;5049702;28;20037;-79
2022/04/09 05:21:15;;;;;;;38.95;19.33;;;11.80;99.90;;;;;;5056954;28;20048;-81
2022/04/09 05:23:44;;;;;;;29.50;16.20;;;11.80;99.90;;;;;;5054207;28;20132;-81
2022/04/09 05:26:11;;;;;;;29.50;14.13;;;11.80;99.90;;;;;;5046619;28;20059;-80
2022/04/09 05:28:40;;;;;;;38.53;19.50;;;11.70;99.90;;;;;;5051615;28;20041;-81
2022/04/09 05:31:09;;;;;;;38.15;20.50;;;11.80;99.90;;;;;;5044680;28;20083;-82
2022/04/09 05:33:37;;;;;;;32.28;17.05;;;12.00;99.90;;;;;;5046069;28;20162;-81
2022/04/09 05:36:06;;;;;;;27.55;17.40;;;12.10;99.90;;;;;;5045208;28;20045;-81
2022/04/09 05:38:35;;;;;;;39.50;21.90;;;12.30;99.90;;;;;;5044936;28;20098;-81
2022/04/09 05:41:04;;;;;;;42.05;18.35;;;12.50;99.90;;;;;;5046557;28;20052;-80
2022/04/09 05:43:33;;;;;;;37.90;20.30;;;12.60;99.90;;;;;;5045271;28;20068;-79
2022/04/09 05:46:02;;;;;;;38.00;18.80;;;12.70;99.90;;;;;;5044020;28;20045;-82
2022/04/09 05:48:36;;;;;;;34.72;18.67;;;12.90;99.90;;;;;;5042830;28;20045;-79
2022/04/09 05:51:05;;;;;;;33.33;19.05;;;13.00;99.90;;;;;;5045498;28;20052;-78
2022/04/09 05:53:37;;;;;;;31.42;18.85;;;13.20;99.90;;;;;;5038455;28;20037;-79
2022/04/09 05:56:07;;;;;;;34.60;18.55;;;13.20;99.90;;;;;;5031221;28;20056;-78
2022/04/09 05:58:41;;;;;;;32.28;18.40;;;13.30;99.90;;;;;;5043834;28;20049;-80
2022/04/09 06:01:12;;;;;;;38.65;21.17;;;13.50;99.90;;;;;;5044086;28;20136;-78
2022/04/09 06:03:40;;;;;;;44.38;26.80;;;13.40;99.90;;;;;;5061391;28;20112;-79
2022/04/09 06:06:11;;;;;;;39.05;23.20;;;13.40;99.90;;;;;;5063224;28;20292;-80
2022/04/09 06:09:01;;;;;;;37.95;22.38;;;13.30;99.90;;;;;;5050966;28;20146;-77
2022/04/09 06:11:50;;;;;;;48.80;28.95;;;13.20;99.90;;;;;;5050880;28;20108;-78
2022/04/09 06:14:44;;;;;;;32.25;19.05;;;13.40;99.90;;;;;;5043827;28;20136;-77
2022/04/09 06:17:11;;;;;;;36.30;17.23;;;13.60;99.90;;;;;;5064157;28;20049;-79
2022/04/09 06:19:39;;;;;;;28.13;14.70;;;13.80;99.90;;;;;;5055678;28;20049;-79
2022/04/09 06:22:08;;;;;;;25.08;14.20;;;13.90;99.90;;;;;;5036579;28;20045;-78
2022/04/09 06:24:37;;;;;;;30.52;17.23;;;14.10;99.90;;;;;;5034914;28;20056;-79
2022/04/09 06:27:05;;;;;;;31.73;18.50;;;14.30;99.90;;;;;;5035974;28;20115;-78
2022/04/09 06:29:36;;;;;;;35.10;20.85;;;14.40;99.90;;;;;;5035967;28;20045;-79
2022/04/09 06:32:04;;;;;;;34.25;20.98;;;14.60;99.90;;;;;;5039082;28;20419;-81
2022/04/09 06:34:32;;;;;;;34.42;19.27;;;14.80;99.90;;;;;;5034478;28;20079;-80
2022/04/09 06:37:05;;;;;;;34.33;18.65;;;15.10;99.90;;;;;;5049535;28;20044;-79
2022/04/09 06:39:34;;;;;;;35.67;19.45;;;15.50;99.90;;;;;;5030963;28;20105;-78
2022/04/09 06:42:02;;;;;;;36.65;19.05;;;15.90;99.90;;;;;;5033105;28;20056;-78
2022/04/09 06:44:52;;;;;;;41.35;21.27;;;16.20;99.90;;;;;;5034765;28;20049;-80
2022/04/09 06:47:20;;;;;;;36.25;20.98;;;16.40;99.90;;;;;;5032644;28;20099;-80
2022/04/09 06:49:56;;;;;;;36.42;19.58;;;16.70;99.90;;;;;;5032375;28;20041;-81
2022/04/09 06:52:25;;;;;;;30.35;18.48;;;17.20;99.90;;;;;;5032848;28;20106;-79
2022/04/09 06:55:11;;;;;;;31.27;17.25;;;17.70;99.90;;;;;;5033613;28;20059;-80
2022/04/09 06:57:43;;;;;;;30.90;17.15;;;18.40;99.90;;;;;;5032625;28;20049;-80
2022/04/09 07:00:15;;;;;;;36.00;16.73;;;18.70;99.90;;;;;;5035289;28;20056;-81
2022/04/09 07:02:43;;;;;;;30.35;15.60;;;18.80;99.90;;;;;;5041090;28;20069;-80
2022/04/09 07:05:10;;;;;;;20.83;10.20;;;18.70;99.90;;;;;;5038822;28;20133;-80
2022/04/09 07:07:38;;;;;;;21.80;12.43;;;18.60;99.90;;;;;;5038770;28;20037;-78
2022/04/09 07:10:08;;;;;;;37.60;19.60;;;18.90;99.90;;;;;;5054547;28;20053;-76
2022/04/09 07:12:39;;;;;;;25.15;13.40;;;19.60;99.90;;;;;;5036318;28;20081;-77
2022/04/09 07:15:07;;;;;;;24.45;12.82;;;20.40;99.90;;;;;;5053259;28;20041;-77
2022/04/09 07:17:35;;;;;;;22.27;12.25;;;20.90;99.90;;;;;;5054179;28;20047;-77
2022/04/09 07:20:04;;;;;;;14.55;7.32;;;21.20;99.90;;;;;;5054554;28;20454;-78
2022/04/09 07:22:33;;;;;;;13.52;7.45;;;21.50;99.90;;;;;;5035885;28;20053;-79
2022/04/09 07:25:00;;;;;;;8.57;4.10;;;21.80;99.90;;;;;;5053293;28;20037;-79
2022/04/09 07:27:36;;;;;;;10.52;6.30;;;21.70;99.90;;;;;;5042801;28;20052;-81
2022/04/09 07:30:07;;;;;;;13.68;4.50;;;21.60;99.90;;;;;;5053390;28;20053;-80
2022/04/09 07:32:35;;;;;;;12.10;5.00;;;21.40;99.90;;;;;;5052802;28;20428;-79
2022/04/09 07:35:02;;;;;;;13.10;3.65;;;21.20;99.90;;;;;;5056471;28;20107;-79
2022/04/09 07:37:30;;;;;;;7.35;3.05;;;21.00;99.90;;;;;;5048094;28;20053;-79
2022/04/09 07:39:58;;;;;;;6.43;2.70;;;20.80;99.90;;;;;;5061840;28;20029;-78
2022/04/09 07:42:25;;;;;;;10.95;2.95;;;20.70;99.90;;;;;;5043325;28;20107;-80
2022/04/09 07:44:53;;;;;;;7.63;2.28;;;20.40;99.90;;;;;;5063235;28;20128;-80
2022/04/09 07:47:22;;;;;;;8.95;2.90;;;20.30;99.90;;;;;;5055001;28;20071;-79
2022/04/09 07:49:49;;;;;;;7.18;2.55;;;20.20;99.90;;;;;;5042214;28;20045;-80
2022/04/09 07:52:17;;;;;;;18.75;3.30;;;20.10;99.90;;;;;;5067169;28;20045;-79
2022/04/09 07:54:44;;;;;;;6.72;2.35;;;20.10;99.90;;;;;;5060320;28;20067;-80
2022/04/09 07:57:12;;;;;;;7.20;3.75;;;20.00;99.90;;;;;;5044896;28;20053;-80
2022/04/09 07:59:39;;;;;;;13.77;4.18;;;20.00;99.90;;;;;;5054852;28;20039;-79
2022/04/09 08:02:07;;;;;;;6.93;2.78;;;19.90;99.90;;;;;;5053966;28;20041;-79
2022/04/09 08:04:37;;;;;;;6.35;2.40;;;19.90;99.90;;;;;;5059014;28;20123;-79
2022/04/09 08:07:04;;;;;;;8.18;2.92;;;20.00;99.90;;;;;;5062347;28;20047;-78
2022/04/09 08:09:32;;;;;;;9.57;3.30;;;20.20;99.90;;;;;;5056705;28;20107;-78
2022/04/09 08:11:59;;;;;;;9.70;3.25;;;20.50;99.90;;;;;;5059101;28;20033;-78
2022/04/09 08:14:27;;;;;;;9.20;3.10;;;20.70;99.90;;;;;;5059744;28;20098;-77
2022/04/09 08:16:54;;;;;;;8.73;3.65;;;20.80;99.90;;;;;;5059724;28;20096;-77
2022/04/09 08:19:22;;;;;;;9.30;3.13;;;21.20;99.90;;;;;;5057510;28;20447;-78
2022/04/09 08:21:53;;;;;;;13.73;3.20;;;21.20;99.40;;;;;;5057851;28;20549;-77
2022/04/09 08:24:20;;;;;;;8.18;3.05;;;21.10;99.20;;;;;;5058503;28;20049;-77
2022/04/09 08:26:48;;;;;;;10.32;2.97;;;21.20;99.00;;;;;;5057413;28;20040;-76
2022/04/09 08:29:19;;;;;;;7.53;2.50;;;21.10;99.10;;;;;;5070218;28;20481;-86
2022/04/09 08:31:47;;;;;;;10.32;2.35;;;21.40;98.70;;;;;;5081546;28;20100;-84
2022/04/09 08:34:15;;;;;;;9.45;2.40;;;21.40;97.70;;;;;;5057064;28;20381;-75
2022/04/09 08:36:43;;;;;;;6.45;2.80;;;21.40;96.40;;;;;;5048767;28;20047;-76
2022/04/09 08:39:12;;;;;;;5.35;2.38;;;21.50;96.60;;;;;;5058418;28;20059;-76
2022/04/09 08:41:44;;;;;;;8.40;2.72;;;21.50;96.40;;;;;;5057107;28;20041;-77
2022/04/09 08:44:12;;;;;;;11.10;2.72;;;21.60;96.10;;;;;;5056803;28;20037;-76
2022/04/09 08:46:41;;;;;;;5.65;2.50;;;21.70;95.90;;;;;;5058155;28;20091;-77
2022/04/09 08:49:09;;;;;;;10.32;2.70;;;21.80;95.20;;;;;;5058308;28;20396;-77
2022/04/09 08:51:36;;;;;;;8.80;3.53;;;21.80;95.40;;;;;;5041024;28;20056;-77
2022/04/09 08:54:04;;;;;;;11.02;2.97;;;21.80;95.40;;;;;;5059520;28;20048;-77
2022/04/09 08:56:34;;;;;;;10.43;3.50;;;21.90;95.30;;;;;;5056770;28;20688;-77
2022/04/09 08:59:02;;;;;;;8.75;3.10;;;22.10;95.00;;;;;;5039240;28;20045;-77
2022/04/09 09:01:31;;;;;;;13.48;5.50;;;22.20;94.00;;;;;;5057312;28;20041;-77
2022/04/09 09:03:58;;;;;;;11.25;3.95;;;22.00;93.90;;;;;;5047123;28;20045;-75
2022/04/09 09:06:28;;;;;;;11.40;3.28;;;22.00;93.60;;;;;;5037136;28;20129;-76
2022/04/09 09:08:56;;;;;;;6.80;2.60;;;22.10;93.40;;;;;;5038123;28;20123;-77
2022/04/09 09:11:24;;;;;;;10.88;3.00;;;22.10;93.40;;;;;;5038834;28;20042;-76
2022/04/09 09:13:54;;;;;;;10.43;3.50;;;22.10;93.20;;;;;;5040913;28;20095;-76
2022/04/09 09:16:27;;;;;;;10.77;3.15;;;22.00;93.60;;;;;;5041083;28;20447;-77
2022/04/09 09:18:56;;;;;;;9.07;2.85;;;21.90;93.40;;;;;;5056126;28;20457;-77
2022/04/09 09:21:27;;;;;;;6.57;2.80;;;21.90;93.10;;;;;;5057636;28;20069;-77
2022/04/09 09:24:12;;;;;;;8.15;3.00;;;22.00;93.10;;;;;;5058517;28;20064;-76
2022/04/09 09:26:40;;;;;;;7.97;3.95;;;22.10;92.60;;;;;;5058335;28;20044;-77
2022/04/09 09:29:09;;;;;;;9.80;2.85;;;22.30;92.00;;;;;;5065784;28;20115;-76
2022/04/09 09:31:41;;;;;;;9.35;4.03;;;22.30;91.90;;;;;;5048455;28;20136;-77
2022/04/09 09:34:10;;;;;;;14.65;3.58;;;22.20;91.40;;;;;;5043655;28;20045;-77
2022/04/09 09:36:40;;;;;;;7.45;2.92;;;22.10;91.10;;;;;;5038534;28;20478;-76
2022/04/09 09:39:08;;;;;;;9.80;3.58;;;22.10;90.60;;;;;;5026708;28;20045;-74
2022/04/09 09:41:46;;;;;;;10.00;3.50;;;22.20;91.00;;;;;;5036725;28;20049;-77
2022/04/09 09:44:16;;;;;;;5.85;2.78;;;22.50;91.00;;;;;;5036638;28;20120;-77
2022/04/09 09:46:45;;;;;;;8.57;3.90;;;22.80;90.60;;;;;;5063462;28;20036;-77
2022/04/09 09:49:13;;;;;;;13.52;3.30;;;22.70;90.20;;;;;;5059049;28;20377;-77
2022/04/09 09:51:40;;;;;;;10.45;3.28;;;22.50;89.80;;;;;;5037772;28;20057;-77
2022/04/09 09:54:09;;;;;;;8.77;3.42;;;22.70;89.70;;;;;;5055738;28;20045;-78
2022/04/09 09:56:39;;;;;;;9.75;3.78;;;22.70;89.20;;;;;;5055595;28;20047;-77
2022/04/09 09:59:07;;;;;;;6.95;2.80;;;22.70;89.10;;;;;;5055785;28;20045;-76
2022/04/09 10:01:40;;;;;;;7.72;3.30;;;22.70;88.90;;;;;;5037156;28;20052;-77
2022/04/09 10:04:11;;;;;;;9.75;3.45;;;22.60;88.50;;;;;;5054684;28;20063;-78
2022/04/09 10:06:41;;;;;;;8.43;3.83;;;22.40;88.70;;;;;;5056447;28;20051;-77
2022/04/09 10:09:11;;;;;;;7.85;3.40;;;22.40;89.40;;;;;;5054419;28;20041;-76
2022/04/09 10:11:42;;;;;;;9.63;3.50;;;22.40;88.20;;;;;;5038302;28;20060;-76
2022/04/09 10:14:11;;;;;;;15.73;3.30;;;22.20;87.20;;;;;;5044741;28;20071;-77
2022/04/09 10:16:42;;;;;;;10.65;2.50;;;22.00;86.80;;;;;;5035900;28;20048;-77
2022/04/09 10:19:11;;;;;;;6.93;2.40;;;21.90;87.00;;;;;;5035417;28;20037;-77
2022/04/09 10:21:41;;;;;;;11.02;3.08;;;22.20;87.10;;;;;;5042751;28;20037;-77
2022/04/09 10:24:18;;;;;;;11.15;5.63;;;22.50;86.60;;;;;;5037139;28;20517;-77
2022/04/09 10:26:46;;;;;;;8.80;3.78;;;22.80;86.30;;;;;;5037129;28;20049;-77
2022/04/09 10:29:13;;;;;;;9.63;3.88;;;23.10;84.90;;;;;;5055019;28;20091;-77
2022/04/09 10:31:43;;;;;;;9.35;3.55;;;23.20;84.60;;;;;;5055387;28;20043;-78
2022/04/09 10:34:12;;;;;;;10.27;3.28;;;23.30;84.60;;;;;;5054828;28;20052;-76
2022/04/09 10:36:59;;;;;;;9.57;3.05;;;23.30;83.70;;;;;;5035489;28;20473;-77
2022/04/09 10:39:29;;;;;;;6.05;2.25;;;23.10;82.80;;;;;;5034143;28;20049;-77
2022/04/09 10:41:57;;;;;;;8.57;3.05;;;22.50;84.40;;;;;;5036707;28;20128;-77
2022/04/09 10:45:00;;;;;;;12.07;4.68;;;22.30;84.00;;;;;;5037637;28;20061;-78
2022/04/09 10:47:29;;;;;;;8.02;2.80;;;22.30;84.00;;;;;;5028239;28;20071;-77
2022/04/09 10:50:11;;;;;;;10.30;2.95;;;21.80;84.20;;;;;;5016654;28;20060;-78
2022/04/09 10:52:40;;;;;;;7.88;2.75;;;21.50;85.10;;;;;;5034560;28;20045;-76
2022/04/09 10:55:24;;;;;;;7.95;2.95;;;21.50;85.70;;;;;;5016198;28;20053;-76
2022/04/09 10:58:04;;;;;;;7.68;2.97;;;21.50;85.80;;;;;;5047725;28;20425;-78
2022/04/09 11:00:34;;;;;;;9.82;5.25;;;21.60;85.50;;;;;;5051014;28;20049;-77
2022/04/09 11:03:34;;;;;;;7.55;3.10;;;21.70;85.90;;;;;;5076178;28;20070;-78
2022/04/09 11:06:40;;;;;;;8.95;2.85;;;21.90;84.90;;;;;;5074197;28;20495;-77
2022/04/09 11:09:08;;;;;;;8.00;2.88;;;22.00;84.90;;;;;;5074107;28;20419;-76
2022/04/09 11:11:37;;;;;;;10.88;3.13;;;22.10;84.50;;;;;;5063017;28;20049;-76
2022/04/09 11:14:04;;;;;;;6.82;2.83;;;22.00;85.20;;;;;;5053637;28;20052;-77
2022/04/09 11:16:36;;;;;;;7.13;3.08;;;22.00;84.60;;;;;;5052747;28;20049;-74
2022/04/09 11:19:05;;;;;;;11.20;3.70;;;22.10;85.00;;;;;;5053964;28;20044;-77
2022/04/09 11:21:33;;;;;;;10.02;3.50;;;22.00;84.30;;;;;;5047563;28;20436;-77
2022/04/09 11:24:08;;;;;;;8.05;3.45;;;21.90;84.50;;;;;;5052224;28;20503;-77
2022/04/09 11:26:35;;;;;;;8.50;3.45;;;21.50;85.60;;;;;;5054657;28;20065;-77
2022/04/09 11:29:12;;;;;;;6.97;3.28;;;21.30;85.60;;;;;;5054654;28;20045;-76
2022/04/09 11:31:47;;;;;;;7.47;2.90;;;21.20;86.00;;;;;;5055086;28;20037;-76
2022/04/09 11:34:16;;;;;;;7.22;2.53;;;21.30;85.80;;;;;;5036792;28;20420;-76
2022/04/09 11:36:43;;;;;;;15.63;3.88;;;21.20;86.10;;;;;;5055143;28;20091;-77
2022/04/09 11:39:11;;;;;;;8.45;3.50;;;21.40;86.40;;;;;;5042004;28;20049;-77
2022/04/09 11:41:38;;;;;;;7.78;3.00;;;21.50;86.10;;;;;;5065482;28;20052;-76
2022/04/09 11:44:06;;;;;;;8.20;3.47;;;21.60;85.60;;;;;;5069706;28;20045;-77
2022/04/09 11:46:44;;;;;;;10.80;3.10;;;21.70;85.80;;;;;;5071361;28;20065;-76
2022/04/09 11:49:12;;;;;;;11.00;3.20;;;21.70;85.20;;;;;;5059281;28;20060;-76
2022/04/09 11:51:41;;;;;;;10.95;3.47;;;21.80;85.40;;;;;;5041192;28;20059;-76
2022/04/09 11:54:16;;;;;;;11.65;4.22;;;21.90;85.50;;;;;;5058942;28;20151;-77
2022/04/09 11:56:43;;;;;;;10.65;3.63;;;21.90;85.40;;;;;;5057793;28;20403;-76
2022/04/09 11:59:13;;;;;;;13.68;3.72;;;21.90;85.50;;;;;;5057474;28;20067;-76
2022/04/09 12:01:45;;;;;;;8.20;3.30;;;21.80;84.60;;;;;;5057928;28;20045;-75
2022/04/09 12:04:12;;;;;;;7.30;3.00;;;21.50;85.30;;;;;;5039024;28;20049;-77
2022/04/09 12:06:41;;;;;;;8.13;4.40;;;21.50;86.40;;;;;;5039314;28;20496;-75
2022/04/09 12:09:09;;;;;;;8.95;3.90;;;21.40;86.30;;;;;;5051141;28;20079;-77
2022/04/09 12:11:42;;;;;;;7.57;2.92;;;21.40;86.10;;;;;;5068735;28;20045;-75
2022/04/09 12:14:10;;;;;;;12.38;4.32;;;21.20;86.20;;;;;;5077017;28;20040;-76
2022/04/09 12:16:41;;;;;;;8.23;2.50;;;21.00;88.10;;;;;;5073414;28;20044;-75
2022/04/09 12:19:09;;;;;;;11.73;3.08;;;20.90;87.20;;;;;;5038770;28;20053;-76
2022/04/09 12:21:37;;;;;;;9.88;3.85;;;20.80;87.20;;;;;;5049634;28;20120;-77
2022/04/09 12:24:08;;;;;;;12.75;4.18;;;20.60;87.80;;;;;;5037010;28;20076;-76
2022/04/09 12:26:37;;;;;;;10.70;3.95;;;20.60;90.00;;;;;;5048381;28;20037;-78
2022/04/09 12:29:09;;;;;;;11.82;3.88;;;20.60;89.70;;;;;;5056476;28;20071;-76
2022/04/09 12:31:37;;;;;;;7.75;3.53;;;20.60;90.40;;;;;;5056093;28;20094;-77
2022/04/09 12:34:05;;;;;;;8.52;4.15;;;20.50;91.10;;;;;;5056502;28;20048;-76
2022/04/09 12:36:33;;;;;;;11.70;5.13;;;20.50;91.70;;;;;;5056588;28;20047;-76
2022/04/09 12:39:01;;;;;;;11.20;5.18;;;20.40;91.50;;;;;;5056625;28;20480;-75
2022/04/09 12:41:46;;;;;;;16.00;7.38;;;20.40;91.80;;;;;;5056584;28;20500;-76
2022/04/09 12:44:30;;;;;;;15.55;5.63;;;20.30;92.80;;;;;;5057269;28;20041;-76
2022/04/09 12:47:02;;;;;;;16.48;6.05;;;20.10;92.50;;;;;;5058275;28;20076;-76
2022/04/09 12:49:30;;;;;;;14.20;4.97;;;20.00;92.90;;;;;;5041015;28;20044;-77
2022/04/09 12:51:58;;;;;;;25.42;4.00;;;19.90;93.70;;;;;;5058625;28;20049;-76
2022/04/09 12:54:27;;;;;;;13.05;2.22;;;19.10;96.40;;;;;;5056475;28;20539;-76